Time;durP1;ratioP1;P1;durP2;ratioP2;P2;SDS_P1;SDS_P2;PMS_P1;PMS_P2;Temp;Humidity;BMP_temperature;BMP_pressure;BME280_temperature;BME280_humidity;BME280_pressure;Samples;Min_cycle;Max_cycle;Signal;HPM_P1;HPM_P2
2022/05/12 00:01:33;;;;;;;7.10;1.48;;;20.30;74.90;;;20.59;55.11;100675.16;5184514;28;20405;-70
2022/05/12 00:04:05;;;;;;;2.72;1.10;;;20.30;75.20;;;20.53;55.18;100667.28;5184379;28;20049;-69
2022/05/12 00:06:37;;;;;;;3.95;1.10;;;20.20;75.50;;;20.53;55.63;100669.03;5184634;28;20577;-70
2022/05/12 00:09:09;;;;;;;3.35;1.20;;;20.20;76.00;;;20.48;55.69;100692.06;5184601;28;20045;-69
2022/05/12 00:11:41;;;;;;;6.30;1.40;;;20.20;76.40;;;20.48;55.78;100681.47;5184487;28;20049;-70
2022/05/12 00:14:14;;;;;;;3.30;1.25;;;20.20;76.70;;;20.43;56.12;100688.53;5184331;28;20493;-68
2022/05/12 00:16:48;;;;;;;4.05;1.27;;;20.10;77.20;;;20.39;56.29;100692.94;5184253;28;20062;-69
2022/05/12 00:19:21;;;;;;;4.45;1.30;;;20.00;77.30;;;20.32;56.26;100678.00;5183553;28;20046;-70
2022/05/12 00:21:53;;;;;;;2.55;0.98;;;20.00;77.60;;;20.29;56.40;100692.16;5177398;28;20463;-70
2022/05/12 00:24:26;;;;;;;3.22;1.30;;;20.00;77.90;;;20.28;56.32;100685.09;5184763;28;20056;-69
2022/05/12 00:26:58;;;;;;;4.10;0.88;;;19.90;78.00;;;20.27;55.50;100698.31;5184396;28;20050;-69
2022/05/12 00:29:30;;;;;;;3.85;1.58;;;19.90;77.50;;;20.22;54.92;100694.84;5184404;28;20068;-69
2022/05/12 00:32:04;;;;;;;4.10;1.05;;;19.90;77.00;;;20.10;54.08;100695.78;5179708;28;20049;-70
2022/05/12 00:34:36;;;;;;;1.33;0.70;;;19.80;75.90;;;20.04;54.28;100702.00;5163904;28;20053;-70
2022/05/12 00:37:08;;;;;;;1.98;0.82;;;19.70;76.20;;;20.06;54.17;100709.91;5164031;28;20076;-70
2022/05/12 00:39:40;;;;;;;2.55;0.80;;;19.70;76.20;;;20.08;54.04;100713.44;5164002;28;20496;-70
2022/05/12 00:42:12;;;;;;;1.13;0.70;;;19.70;76.30;;;20.04;54.20;100728.44;5163552;28;20050;-70
2022/05/12 00:44:44;;;;;;;4.97;1.20;;;19.70;76.50;;;20.05;54.66;100724.03;5164312;28;20050;-70
2022/05/12 00:47:18;;;;;;;2.40;0.82;;;19.70;77.10;;;20.06;55.15;100731.09;5164079;28;20050;-69
2022/05/12 00:49:53;;;;;;;2.50;0.77;;;19.70;77.70;;;20.02;55.77;100734.66;5163773;28;20043;-70
2022/05/12 00:52:29;;;;;;;3.70;0.88;;;19.70;78.40;;;19.94;56.35;100739.94;5163767;28;20046;-70
2022/05/12 00:55:06;;;;;;;2.05;0.80;;;19.60;79.20;;;19.92;56.61;100735.56;5164259;28;20050;-70
2022/05/12 00:57:45;;;;;;;2.72;0.80;;;19.60;79.50;;;19.85;56.82;100734.72;5164013;28;20054;-70
2022/05/12 01:00:20;;;;;;;2.45;0.93;;;19.50;80.10;;;19.72;57.52;100735.66;5163643;28;20053;-70
2022/05/12 01:02:58;;;;;;;3.75;1.10;;;19.40;80.90;;;19.53;58.57;100733.03;5163439;28;20054;-70
2022/05/12 01:05:31;;;;;;;3.88;0.98;;;19.30;82.10;;;19.47;58.85;100735.69;5164088;28;20472;-71
2022/05/12 01:08:04;;;;;;;3.55;0.95;;;19.20;82.90;;;19.38;59.06;100740.13;5163497;28;20054;-70
2022/05/12 01:10:39;;;;;;;2.10;0.93;;;19.10;83.60;;;19.31;59.68;100754.25;5164698;28;20058;-69
2022/05/12 01:13:10;;;;;;;3.40;1.00;;;19.00;84.40;;;19.22;60.17;100758.63;5167252;28;20137;-70
2022/05/12 01:15:52;;;;;;;3.67;0.88;;;18.90;85.40;;;19.21;60.46;100771.84;5168069;28;20046;-70
2022/05/12 01:18:27;;;;;;;3.70;1.00;;;18.90;86.30;;;19.13;60.69;100756.00;5167609;28;20046;-69
2022/05/12 01:21:00;;;;;;;3.15;1.20;;;18.80;87.10;;;19.08;61.21;100773.63;5167902;28;20498;-70
2022/05/12 01:23:37;;;;;;;1.45;0.88;;;18.80;87.90;;;19.07;61.38;100771.84;5167178;28;20074;-70
2022/05/12 01:26:13;;;;;;;4.00;1.20;;;18.80;88.80;;;19.01;61.41;100779.78;5167918;28;20550;-70
2022/05/12 01:28:45;;;;;;;4.22;1.17;;;18.70;89.50;;;18.91;61.84;100780.69;5167497;28;20057;-69
2022/05/12 01:31:23;;;;;;;3.00;1.30;;;18.60;90.20;;;18.85;62.03;100773.63;5167634;28;20384;-70
2022/05/12 01:33:55;;;;;;;1.67;0.95;;;18.50;90.50;;;18.73;62.73;100778.91;5167068;28;20105;-70
2022/05/12 01:36:28;;;;;;;3.10;1.00;;;18.40;91.20;;;18.65;63.06;100789.41;5167175;28;20046;-69
2022/05/12 01:39:02;;;;;;;1.58;1.05;;;18.40;91.60;;;18.58;63.32;100787.66;5167382;28;20084;-69
2022/05/12 01:41:34;;;;;;;5.65;1.60;;;18.30;92.10;;;18.56;63.72;100786.75;5167335;28;20054;-69
2022/05/12 01:44:07;;;;;;;3.55;1.40;;;18.30;92.60;;;18.46;64.55;100790.25;5167063;28;20494;-68
2022/05/12 01:46:39;;;;;;;4.57;2.08;;;18.20;93.30;;;18.40;64.82;100795.50;5167197;28;20405;-71
2022/05/12 01:49:11;;;;;;;4.07;1.42;;;18.10;93.80;;;18.43;65.00;100798.16;5167150;28;20396;-70
2022/05/12 01:51:43;;;;;;;2.47;1.27;;;18.10;94.30;;;18.45;65.16;100796.38;5167105;28;20050;-70
2022/05/12 01:54:16;;;;;;;5.03;2.28;;;18.10;94.80;;;18.38;65.47;100803.41;5167570;28;20407;-69
2022/05/12 01:56:48;;;;;;;4.53;1.67;;;18.10;95.30;;;18.29;65.35;100805.16;5167007;28;20506;-69
2022/05/12 01:59:21;;;;;;;3.50;1.65;;;18.00;95.50;;;18.20;65.94;100805.13;5167183;28;20407;-70
2022/05/12 02:01:53;;;;;;;3.05;1.50;;;17.90;96.10;;;18.17;66.32;100806.84;5166559;28;20136;-69
2022/05/12 02:04:25;;;;;;;4.57;2.13;;;17.90;96.60;;;18.13;66.27;100807.75;5166898;28;20057;-69
2022/05/12 02:06:57;;;;;;;3.72;1.40;;;17.90;96.80;;;18.06;66.45;100813.88;5166738;28;20056;-69
2022/05/12 02:09:31;;;;;;;2.13;1.60;;;17.80;97.10;;;18.06;66.56;100815.59;5166929;28;20505;-69
2022/05/12 02:12:03;;;;;;;5.13;1.70;;;17.80;97.50;;;18.05;66.48;100814.72;5166172;28;20054;-70
2022/05/12 02:14:36;;;;;;;4.07;1.80;;;17.80;97.60;;;18.03;66.56;100819.09;5166974;28;20058;-69
2022/05/12 02:17:08;;;;;;;1.63;1.52;;;17.80;97.80;;;18.05;66.47;100838.44;5166841;28;20054;-69
2022/05/12 02:19:39;;;;;;;3.90;2.25;;;17.80;98.00;;;18.08;66.35;100833.22;5166671;28;20054;-69
2022/05/12 02:22:11;;;;;;;5.10;2.00;;;17.80;97.90;;;18.10;66.33;100842.00;5165576;28;20050;-69
2022/05/12 02:24:45;;;;;;;2.58;1.83;;;17.80;98.10;;;18.05;66.25;100842.84;5166771;28;20388;-70
2022/05/12 02:27:17;;;;;;;2.70;1.73;;;17.80;98.00;;;18.03;66.31;100850.75;5167146;28;20085;-70
2022/05/12 02:29:49;;;;;;;4.07;1.50;;;17.80;98.20;;;18.02;65.97;100848.13;5166124;28;20054;-70
2022/05/12 02:32:22;;;;;;;2.22;1.65;;;17.70;98.10;;;18.03;65.89;100849.88;5166297;28;20060;-69
2022/05/12 02:34:54;;;;;;;4.43;2.58;;;17.70;98.10;;;18.03;65.21;100861.31;5166529;28;20046;-69
2022/05/12 02:37:27;;;;;;;4.03;2.40;;;17.70;97.80;;;18.05;65.03;100853.41;5166416;28;20054;-69
2022/05/12 02:40:00;;;;;;;4.40;2.58;;;17.70;97.60;;;18.04;65.07;100856.91;5166182;28;20050;-70
2022/05/12 02:42:32;;;;;;;5.07;2.67;;;17.70;97.70;;;18.05;65.10;100861.31;5165964;28;20396;-70
2022/05/12 02:45:06;;;;;;;4.40;2.35;;;17.80;97.70;;;18.09;65.08;100871.91;5166358;28;20475;-70
2022/05/12 02:47:38;;;;;;;4.35;2.55;;;17.80;97.70;;;18.10;65.03;100872.78;5166168;28;20068;-70
2022/05/12 02:50:13;;;;;;;3.00;1.98;;;17.80;97.80;;;18.09;65.36;100874.53;5166053;28;20050;-70
2022/05/12 02:52:45;;;;;;;3.80;2.30;;;17.80;98.00;;;18.06;64.48;100873.63;5165276;28;20054;-70
2022/05/12 02:55:19;;;;;;;4.05;2.17;;;17.80;97.30;;;18.02;64.21;100888.56;5165992;28;20054;-70
2022/05/12 02:57:51;;;;;;;3.95;2.03;;;17.70;97.20;;;18.00;64.04;100894.72;5165926;28;20050;-69
2022/05/12 03:00:23;;;;;;;3.83;2.15;;;17.70;97.10;;;17.96;64.06;100896.44;5165894;28;20046;-71
2022/05/12 03:02:55;;;;;;;5.55;2.47;;;17.70;97.00;;;17.93;64.21;100896.44;5165515;28;20488;-69
2022/05/12 03:05:28;;;;;;;6.50;2.97;;;17.70;97.10;;;17.86;64.94;100900.75;5165780;28;20066;-70
2022/05/12 03:08:00;;;;;;;6.13;3.25;;;17.60;97.50;;;17.76;65.23;100903.34;5166038;28;20049;-70
2022/05/12 03:10:34;;;;;;;7.55;2.97;;;17.60;97.70;;;17.68;65.59;100910.28;5165944;28;20052;-69
2022/05/12 03:13:07;;;;;;;6.05;2.97;;;17.50;97.90;;;17.66;65.38;100915.50;5165081;28;20065;-69
2022/05/12 03:15:39;;;;;;;8.30;3.10;;;17.50;97.80;;;17.64;65.45;100920.78;5165528;28;20046;-69
2022/05/12 03:18:11;;;;;;;5.45;2.38;;;17.50;97.90;;;17.60;65.17;100924.28;5165612;28;20050;-71
2022/05/12 03:20:43;;;;;;;4.28;2.05;;;17.40;97.80;;;17.56;65.23;100927.75;5165388;28;20082;-69
2022/05/12 03:23:15;;;;;;;3.22;1.80;;;17.30;97.80;;;17.51;65.21;100934.72;5165268;28;20057;-70
2022/05/12 03:25:49;;;;;;;2.47;1.73;;;17.20;97.80;;;17.45;65.24;100937.31;5165455;28;20069;-70
2022/05/12 03:28:21;;;;;;;3.42;1.90;;;17.20;97.90;;;17.38;65.44;100948.66;5165076;28;20061;-70
2022/05/12 03:30:53;;;;;;;4.63;2.20;;;17.20;98.00;;;17.30;65.81;100951.22;5164993;28;20046;-70
2022/05/12 03:33:25;;;;;;;2.95;2.08;;;17.10;98.20;;;17.24;65.73;100945.91;5165010;28;20494;-69
2022/05/12 03:35:58;;;;;;;2.90;1.60;;;17.10;98.40;;;17.18;66.28;100950.22;5165205;28;20054;-70
2022/05/12 03:38:30;;;;;;;4.32;2.00;;;17.00;98.60;;;17.14;66.64;100953.69;5165686;28;20096;-69
2022/05/12 03:41:04;;;;;;;2.65;1.75;;;16.90;99.10;;;17.12;67.02;100960.69;5165122;28;20053;-69
2022/05/12 03:46:25;;;;;;;3.22;1.83;;;16.90;99.20;;;17.03;66.99;100957.09;5165111;28;20057;-71
2022/05/12 03:48:57;;;;;;;4.90;2.00;;;16.80;99.20;;;17.02;67.19;100970.25;5165032;28;20054;-69
2022/05/12 03:51:29;;;;;;;3.13;1.50;;;16.80;99.40;;;17.02;67.49;100980.78;5164704;28;20050;-69
2022/05/12 03:54:01;;;;;;;3.50;1.60;;;16.80;99.60;;;16.98;67.52;100981.63;5165279;28;20468;-69
2022/05/12 03:56:35;;;;;;;5.68;1.83;;;16.70;99.70;;;16.95;67.70;100985.09;5177032;28;20042;-69
2022/05/12 03:59:07;;;;;;;2.83;1.70;;;16.70;99.80;;;16.91;67.74;100988.56;5184906;28;20042;-68
2022/05/12 04:01:39;;;;;;;3.10;1.70;;;16.70;99.70;;;16.88;67.50;100993.78;5248173;23;20135;-68
2022/05/12 04:04:11;;;;;;;4.85;2.25;;;16.70;99.70;;;16.83;67.21;100995.50;5174141;28;20125;-69
2022/05/12 04:06:43;;;;;;;2.97;1.60;;;16.60;99.40;;;16.77;67.16;101000.69;5184619;28;20483;-68
2022/05/12 04:09:15;;;;;;;3.90;2.20;;;16.60;99.40;;;16.72;67.27;100999.72;5184776;28;20577;-69
2022/05/12 04:11:49;;;;;;;3.75;2.13;;;16.50;99.50;;;16.69;67.45;101012.78;5184673;28;20085;-70
2022/05/12 04:14:21;;;;;;;4.50;1.92;;;16.50;99.60;;;16.70;67.44;101012.88;5182249;28;20056;-68
2022/05/12 04:16:53;;;;;;;2.85;1.45;;;16.40;99.70;;;16.70;67.37;101025.16;5184983;28;20494;-69
2022/05/12 04:19:25;;;;;;;3.40;1.80;;;16.50;99.70;;;16.65;67.67;101027.69;5185912;28;20053;-69
2022/05/12 04:21:57;;;;;;;4.53;2.00;;;16.40;99.80;;;16.62;67.87;101032.00;5184358;28;20057;-69
2022/05/12 04:24:29;;;;;;;5.18;1.92;;;16.40;99.90;;;16.58;67.91;101033.72;5183947;28;20057;-69
2022/05/12 04:27:04;;;;;;;3.70;1.75;;;16.40;99.90;;;16.60;68.09;101033.75;5184495;28;20144;-69
2022/05/12 04:29:37;;;;;;;3.50;1.92;;;16.40;99.90;;;16.58;67.73;101040.72;5184570;28;20042;-69
2022/05/12 04:32:10;;;;;;;3.55;2.10;;;16.40;99.90;;;16.56;67.91;101053.84;5184473;28;20459;-69
2022/05/12 04:37:34;;;;;;;3.53;1.77;;;16.30;99.70;;;16.48;67.30;101051.09;5184554;28;20418;-69
2022/05/12 04:40:09;;;;;;;3.35;1.65;;;16.30;99.50;;;16.56;67.03;101059.13;5185751;28;20100;-68
2022/05/12 04:42:43;;;;;;;2.80;1.50;;;16.40;99.40;;;16.59;66.23;101058.28;5184528;28;20398;-68
2022/05/12 04:45:16;;;;;;;3.05;1.42;;;16.40;98.90;;;16.63;65.58;101065.38;5183987;28;20166;-69
2022/05/12 04:47:49;;;;;;;3.25;1.20;;;16.40;98.60;;;16.74;64.89;101063.78;5185018;28;20050;-69
2022/05/12 04:50:25;;;;;;;3.78;1.52;;;16.50;98.20;;;16.96;64.34;101072.88;5184205;28;20498;-69
2022/05/12 04:52:57;;;;;;;2.60;1.42;;;16.70;97.90;;;17.34;62.90;101073.34;5184222;28;20056;-69
2022/05/12 04:55:30;;;;;;;2.45;1.48;;;16.90;97.30;;;17.68;61.14;101079.88;5183946;28;20042;-69
2022/05/12 04:58:04;;;;;;;4.13;1.40;;;17.20;96.30;;;17.99;60.04;101090.75;5184697;28;20166;-69
2022/05/12 05:00:40;;;;;;;3.80;1.50;;;17.50;95.90;;;18.27;58.82;101092.75;5184610;28;20513;-69
2022/05/12 05:03:13;;;;;;;4.63;1.50;;;17.80;94.80;;;18.57;57.43;101100.00;5183679;28;20513;-69
2022/05/12 05:05:46;;;;;;;3.25;1.60;;;18.10;93.90;;;18.90;55.88;101101.13;5184254;28;20085;-69
2022/05/12 05:08:23;;;;;;;5.38;1.70;;;18.40;92.80;;;19.17;54.72;101111.88;5182725;28;20132;-69
2022/05/12 05:10:55;;;;;;;2.75;1.20;;;18.60;91.90;;;19.47;53.88;101110.19;5183855;28;20042;-69
2022/05/12 05:13:29;;;;;;;2.33;1.50;;;18.90;91.10;;;19.89;52.52;101111.25;5183884;28;20054;-69
2022/05/12 05:16:02;;;;;;;2.78;1.42;;;19.20;90.10;;;20.31;50.74;101116.53;5185114;28;20050;-69
2022/05/12 05:18:36;;;;;;;4.43;1.20;;;19.60;87.40;;;20.75;49.12;101120.09;5183611;28;20050;-69
2022/05/12 05:21:10;;;;;;;3.20;1.55;;;20.00;84.60;;;21.12;47.79;101124.38;5184491;28;20440;-69
2022/05/12 05:23:42;;;;;;;2.42;1.20;;;20.30;81.90;;;21.36;46.85;101128.75;5184143;28;20100;-69
2022/05/12 05:26:14;;;;;;;4.25;1.58;;;20.60;79.70;;;21.54;46.64;101135.75;5184042;28;20392;-69
2022/05/12 05:28:48;;;;;;;4.57;1.23;;;20.80;79.00;;;21.73;46.07;101140.97;5183788;28;20056;-69
2022/05/12 05:31:20;;;;;;;3.78;1.70;;;21.00;77.90;;;21.47;46.14;101138.44;5183728;28;20104;-69
2022/05/12 05:33:52;;;;;;;4.65;1.58;;;20.80;76.80;;;21.53;46.78;101143.72;5183572;28;20057;-70
2022/05/12 05:36:24;;;;;;;2.88;1.77;;;20.80;77.90;;;21.92;46.34;101146.16;5184427;28;20136;-69
2022/05/12 05:38:56;;;;;;;3.33;1.20;;;21.10;77.60;;;22.09;45.10;101154.03;5184109;28;20494;-70
2022/05/12 05:41:28;;;;;;;4.95;1.48;;;21.30;75.50;;;22.14;45.18;101156.66;5183648;28;20145;-69
2022/05/12 05:44:02;;;;;;;3.97;1.45;;;21.30;75.00;;;22.22;45.16;101168.09;5183555;28;20073;-69
2022/05/12 05:46:34;;;;;;;3.85;1.33;;;21.40;75.00;;;22.39;44.58;101176.81;5183835;28;20089;-70
2022/05/12 05:49:06;;;;;;;3.50;1.65;;;21.60;74.70;;;22.34;43.48;101178.63;5183559;28;20089;-68
2022/05/12 05:54:31;;;;;;;2.70;1.30;;;21.50;72.80;;;22.35;44.06;101191.00;5184009;28;20143;-68
2022/05/12 05:57:04;;;;;;;3.05;1.60;;;21.60;72.50;;;22.52;43.66;101188.25;5179668;28;20406;-70
2022/05/12 05:59:37;;;;;;;4.50;1.80;;;21.70;72.00;;;22.57;43.74;101188.22;5166432;28;20138;-68
2022/05/12 06:02:09;;;;;;;6.47;1.83;;;21.80;71.80;;;22.69;43.24;101189.00;5174004;28;20124;-67
2022/05/12 06:04:41;;;;;;;4.55;1.80;;;21.90;71.20;;;22.65;43.13;101194.34;5166425;28;20050;-67
2022/05/12 06:07:13;;;;;;;5.60;1.65;;;21.90;70.60;;;22.83;43.39;101191.50;5166244;28;20081;-67
2022/05/12 06:09:45;;;;;;;4.55;2.00;;;22.00;71.00;;;23.06;43.04;101201.06;5169572;28;20046;-68
2022/05/12 06:12:18;;;;;;;4.53;1.73;;;22.20;70.70;;;23.17;42.51;101205.38;5167707;28;20060;-69
2022/05/12 06:14:51;;;;;;;8.07;2.20;;;22.30;69.80;;;23.39;42.38;101206.00;5166758;28;20459;-67
2022/05/12 06:17:23;;;;;;;5.65;1.65;;;22.50;69.70;;;23.67;41.48;101211.94;5166118;28;20050;-68
2022/05/12 06:19:55;;;;;;;5.22;1.50;;;22.80;68.40;;;23.90;40.19;101214.28;5179090;28;20413;-68
2022/05/12 06:22:27;;;;;;;4.60;1.85;;;23.10;66.50;;;24.07;39.77;101214.94;5179125;28;20140;-66
2022/05/12 06:25:00;;;;;;;5.93;1.90;;;23.20;65.40;;;24.23;39.53;101222.69;5175308;28;20050;-68
2022/05/12 06:27:32;;;;;;;3.75;1.55;;;23.40;65.20;;;24.37;39.22;101215.41;5170885;28;20063;-67
2022/05/12 06:30:07;;;;;;;6.82;1.55;;;23.60;64.50;;;24.29;39.33;101227.94;5170974;28;20050;-67
2022/05/12 06:32:40;;;;;;;6.95;1.67;;;23.50;64.10;;;24.46;38.80;101228.59;5173996;28;20051;-69
2022/05/12 06:35:16;;;;;;;5.43;2.03;;;23.60;63.60;;;24.28;38.81;101232.38;5169808;28;20052;-65
2022/05/12 06:37:48;;;;;;;3.40;1.63;;;23.50;63.40;;;23.97;39.21;101229.28;5165368;28;20050;-68
2022/05/12 06:40:21;;;;;;;3.30;1.63;;;23.30;63.50;;;23.65;40.35;101239.44;5165872;28;20137;-69
2022/05/12 06:42:54;;;;;;;3.65;1.45;;;23.00;64.40;;;23.64;40.77;101246.56;5169579;28;20049;-68
2022/05/12 06:45:27;;;;;;;6.38;2.25;;;22.90;65.10;;;23.82;40.30;101243.66;5185675;28;20410;-70
2022/05/12 06:47:59;;;;;;;10.45;1.63;;;23.00;64.90;;;24.07;40.04;101241.56;5185631;28;20073;-68
2022/05/12 06:50:31;;;;;;;4.50;2.10;;;23.20;65.50;;;24.15;39.96;101243.25;5185666;28;20048;-69
2022/05/12 06:53:03;;;;;;;4.72;1.50;;;23.40;64.70;;;23.93;40.14;101246.22;5186281;28;20050;-69
2022/05/12 06:55:35;;;;;;;4.95;1.73;;;23.30;64.20;;;23.85;39.93;101257.84;5186304;28;20525;-61
2022/05/12 06:58:10;;;;;;;5.05;1.77;;;23.10;64.10;;;23.70;40.49;101249.16;5186702;28;20054;-64
2022/05/12 07:00:44;;;;;;;4.28;1.70;;;23.10;64.50;;;23.49;41.00;101244.94;5186502;28;20403;-69
2022/05/12 07:03:18;;;;;;;5.47;1.73;;;22.90;64.90;;;23.19;40.53;101250.56;5185689;28;20053;-69
2022/05/12 07:05:50;;;;;;;7.03;1.40;;;22.70;64.20;;;22.94;41.08;101256.09;5186470;28;20093;-69
2022/05/12 07:08:22;;;;;;;5.43;1.67;;;22.50;64.50;;;22.83;41.68;101255.31;5185932;28;20129;-68
2022/05/12 07:10:54;;;;;;;5.35;1.80;;;22.30;65.30;;;23.02;41.38;101253.41;5186602;28;20137;-70
2022/05/12 07:13:26;;;;;;;4.97;1.63;;;22.40;65.20;;;23.47;40.86;101246.75;5185526;28;20145;-69
2022/05/12 07:16:01;;;;;;;4.13;1.80;;;22.70;65.10;;;23.98;39.17;101248.78;5186283;28;20137;-70
2022/05/12 07:18:34;;;;;;;5.45;1.55;;;23.00;63.60;;;24.48;38.08;101250.78;5186087;28;20050;-69
2022/05/12 07:26:48;;;;;;;2.80;1.23;;;23.80;61.50;;;24.24;37.92;101262.63;5178561;28;20056;-68
2022/05/12 07:29:22;;;;;;;4.07;1.30;;;23.60;61.00;;;23.77;38.71;101265.91;5185417;28;20046;-67
2022/05/12 07:31:56;;;;;;;4.45;1.35;;;23.20;61.10;;;23.40;39.34;101260.09;5185335;28;20401;-68
2022/05/12 07:34:28;;;;;;;2.53;0.90;;;22.90;62.00;;;23.08;39.83;101268.38;5185790;28;20052;-66
2022/05/12 07:37:01;;;;;;;3.00;0.95;;;22.60;62.40;;;22.87;40.16;101272.13;5184894;28;20081;-62
2022/05/12 07:39:33;;;;;;;3.60;0.90;;;22.30;62.90;;;22.68;40.65;101268.69;5185734;28;20479;-62
2022/05/12 07:42:06;;;;;;;1.63;0.80;;;22.10;63.40;;;22.61;41.08;101266.97;5185741;28;20074;-62
2022/05/12 07:44:39;;;;;;;1.98;0.93;;;22.00;64.10;;;22.58;41.19;101272.31;5170725;28;20049;-63
2022/05/12 07:47:14;;;;;;;2.13;0.93;;;22.00;64.30;;;22.43;41.22;101279.50;5185703;28;20630;-62
2022/05/12 07:49:46;;;;;;;2.25;1.30;;;21.80;64.30;;;22.62;41.19;101280.25;5176497;28;20233;-60
2022/05/12 07:52:18;;;;;;;2.75;1.05;;;21.90;64.70;;;22.79;41.25;101277.47;5181982;28;20135;-67
2022/05/12 07:54:50;;;;;;;4.13;1.13;;;22.00;64.70;;;22.76;41.05;101274.84;5185115;28;20046;-68
2022/05/12 07:57:22;;;;;;;2.30;0.93;;;22.00;64.70;;;22.69;41.31;101281.09;5185031;28;20129;-66
2022/05/12 07:59:54;;;;;;;2.70;1.27;;;22.00;64.80;;;22.84;40.55;101288.97;5185490;28;20383;-67
2022/05/12 08:02:27;;;;;;;4.00;1.25;;;22.00;64.20;;;23.22;39.88;101287.78;5184628;28;20072;-67
2022/05/12 08:04:59;;;;;;;3.15;1.40;;;22.20;63.70;;;23.58;39.31;101293.59;5183524;28;20042;-67
2022/05/12 08:07:31;;;;;;;4.25;1.60;;;22.40;63.40;;;24.17;38.82;101294.69;5180595;28;20141;-67
2022/05/12 08:10:05;;;;;;;4.75;1.58;;;22.80;63.70;;;24.85;37.62;101298.19;5183890;28;20049;-68
2022/05/12 08:12:37;;;;;;;4.25;1.25;;;23.20;62.30;;;25.02;36.95;101305.88;5181620;28;20042;-63
2022/05/12 08:15:10;;;;;;;4.13;1.60;;;23.50;61.40;;;25.21;36.80;101302.03;5182392;28;20137;-63
2022/05/12 08:17:43;;;;;;;4.97;1.52;;;23.70;61.00;;;25.86;35.77;101304.38;5184812;28;20061;-63
2022/05/12 08:20:15;;;;;;;4.78;1.60;;;24.00;60.30;;;26.35;35.14;101308.69;5184275;28;20064;-63
2022/05/12 08:22:47;;;;;;;5.43;2.00;;;24.40;60.20;;;26.33;35.22;101308.72;5189863;28;20046;-63
2022/05/12 08:25:20;;;;;;;3.38;1.40;;;24.50;60.00;;;25.74;35.66;101302.84;5186957;28;20046;-62
2022/05/12 08:27:52;;;;;;;2.97;1.45;;;24.20;59.90;;;25.42;36.03;101316.75;5184891;28;20133;-63
2022/05/12 08:30:24;;;;;;;3.90;1.67;;;24.00;60.00;;;26.32;35.35;101311.44;5184232;28;20049;-63
2022/05/12 08:32:57;;;;;;;11.57;2.97;;;24.10;60.50;;;27.52;34.15;101305.84;5184589;28;20081;-64
2022/05/12 08:35:29;;;;;;;5.82;1.75;;;24.70;60.50;;;28.90;32.51;101316.00;5184703;28;20053;-64
2022/05/12 08:38:01;;;;;;;5.13;1.83;;;25.50;59.50;;;29.99;30.34;101312.19;5184468;28;20137;-64
2022/05/12 08:40:48;;;;;;;4.43;2.03;;;26.40;57.70;;;30.87;28.95;101318.63;5184088;28;20107;-63
2022/05/12 08:43:25;;;;;;;5.50;1.80;;;27.20;56.10;;;31.54;27.36;101321.16;5183789;28;20053;-68
2022/05/12 08:46:04;;;;;;;2.63;1.45;;;27.80;54.00;;;32.14;27.28;101327.41;5183793;28;20054;-69
2022/05/12 08:48:42;;;;;;;3.60;1.17;;;28.30;53.90;;;31.67;27.06;101326.00;5184261;28;20529;-68
2022/05/12 08:51:19;;;;;;;3.50;1.52;;;28.40;52.60;;;30.39;27.51;101333.09;5183638;28;20072;-68
2022/05/12 08:53:58;;;;;;;2.65;1.20;;;27.90;51.60;;;29.26;29.39;101330.94;5181196;28;20048;-68
2022/05/12 08:56:32;;;;;;;3.75;1.35;;;27.30;52.50;;;28.58;30.29;101332.25;5183709;28;20060;-69
2022/05/12 08:59:04;;;;;;;2.70;1.27;;;26.70;53.20;;;28.27;30.79;101337.66;5183268;28;20081;-67
2022/05/12 09:01:50;;;;;;;3.95;1.48;;;26.40;53.60;;;28.46;30.49;101338.00;5182198;28;20046;-67
2022/05/12 09:04:58;;;;;;;1.73;1.20;;;26.30;53.80;;;27.57;31.10;101336.00;5181554;28;20050;-67
2022/05/12 09:07:38;;;;;;;2.80;1.48;;;26.00;53.40;;;26.67;32.13;101324.91;5179246;28;20635;-67
2022/05/12 09:10:37;;;;;;;3.33;1.40;;;25.40;54.10;;;25.85;33.66;101324.00;5178807;28;20053;-67
2022/05/12 09:13:23;;;;;;;2.15;1.67;;;24.80;55.30;;;26.69;33.36;101325.75;5171078;28;20411;-67
2022/05/12 09:16:08;;;;;;;2.85;1.45;;;24.90;56.30;;;27.49;31.76;101315.72;5183714;28;20133;-68
2022/05/12 09:18:42;;;;;;;4.53;1.55;;;25.40;55.20;;;27.42;32.14;101319.50;5184029;28;20050;-68
2022/05/12 09:21:24;;;;;;;2.72;1.30;;;25.60;55.10;;;27.58;32.13;101316.38;5184094;28;20088;-68
2022/05/12 09:23:57;;;;;;;4.03;1.30;;;25.80;55.10;;;27.28;32.39;101320.75;5184068;28;20050;-68
2022/05/12 09:26:41;;;;;;;1.42;1.20;;;25.80;54.70;;;27.16;33.18;101313.03;5184047;28;20466;-67
2022/05/12 09:29:22;;;;;;;4.93;1.98;;;25.80;55.20;;;27.16;32.43;101306.81;5179353;28;20054;-68
2022/05/12 09:31:57;;;;;;;3.33;1.17;;;25.90;54.20;;;27.08;32.91;101298.09;5182261;28;20038;-68
2022/05/12 09:34:34;;;;;;;2.03;1.17;;;25.90;54.60;;;27.10;33.28;101302.47;5184499;28;20473;-68
2022/05/12 09:37:20;;;;;;;4.18;1.17;;;26.00;55.00;;;27.16;33.33;101305.00;5178969;28;20053;-68
2022/05/12 09:39:55;;;;;;;2.50;1.27;;;26.10;55.10;;;27.29;32.32;101306.44;5187407;28;20052;-68
2022/05/12 09:42:42;;;;;;;1.33;1.02;;;26.20;53.90;;;27.45;32.25;101309.59;5186490;28;20690;-69
2022/05/12 09:45:27;;;;;;;1.27;1.10;;;26.30;53.90;;;27.27;31.71;101294.91;5186574;28;20068;-67
2022/05/12 09:48:21;;;;;;;1.42;1.20;;;26.20;53.00;;;26.72;32.25;101290.91;5185267;28;20042;-68
2022/05/12 09:50:54;;;;;;;2.35;0.98;;;25.90;53.30;;;26.32;32.96;101290.03;5183795;28;20080;-69
2022/05/12 09:53:31;;;;;;;2.35;1.00;;;25.50;53.70;;;26.05;33.86;101291.53;5186858;28;20517;-68
2022/05/12 09:56:07;;;;;;;2.80;1.23;;;25.30;54.40;;;25.88;33.47;101294.53;5188185;28;20561;-72
2022/05/12 09:58:43;;;;;;;2.28;1.10;;;25.10;54.30;;;25.84;33.64;101287.53;5187487;28;20049;-68
2022/05/12 10:01:22;;;;;;;2.47;1.08;;;24.90;54.50;;;25.62;33.76;101281.69;5188046;28;20552;-69
2022/05/12 10:10:11;;;;;;;2.15;1.52;;;24.20;55.40;;;24.38;36.05;101289.09;5143307;28;20042;-84
2022/05/12 10:12:53;;;;;;;5.45;2.22;;;23.80;56.30;;;24.13;36.91;101277.03;5170133;28;20408;-81
2022/05/12 10:15:31;;;;;;;5.40;1.73;;;23.60;57.50;;;23.86;37.07;101291.53;5191104;23;20045;-62
2022/05/12 10:18:06;;;;;;;3.60;1.40;;;23.40;57.40;;;23.59;36.96;101282.94;5200220;28;20053;-65
2022/05/12 10:20:45;;;;;;;3.60;1.50;;;23.10;57.40;;;23.53;37.31;101273.25;5188368;28;20056;-63
2022/05/12 10:23:26;;;;;;;2.03;1.25;;;23.00;57.70;;;23.53;37.56;101272.38;5187052;28;20056;-63
2022/05/12 10:26:09;;;;;;;2.35;1.13;;;22.90;58.10;;;23.82;37.57;101274.75;5170185;28;20483;-62
2022/05/12 10:28:52;;;;;;;3.85;1.20;;;23.10;58.40;;;24.29;37.21;101265.22;5159245;28;20679;-64
2022/05/12 10:31:28;;;;;;;3.80;1.33;;;23.40;58.60;;;24.70;36.27;101261.09;5161713;28;20053;-66
2022/05/12 10:34:27;;;;;;;2.63;1.58;;;23.70;58.00;;;24.89;35.91;101254.53;5146957;28;20061;-65
2022/05/12 10:37:06;;;;;;;2.20;1.20;;;23.90;57.10;;;25.20;35.33;101251.38;5145333;28;20055;-65
2022/05/12 10:39:48;;;;;;;3.47;1.48;;;24.20;56.70;;;25.34;34.51;101257.31;5146148;28;20065;-64
2022/05/12 10:42:37;;;;;;;2.85;1.20;;;24.40;55.70;;;25.49;34.44;101254.34;5146467;28;20066;-66
2022/05/12 10:45:23;;;;;;;1.27;1.13;;;24.60;55.50;;;25.70;34.48;101248.59;5162492;28;20498;-64
2022/05/12 10:48:18;;;;;;;1.95;1.20;;;24.80;55.50;;;25.98;33.27;101248.06;5166003;28;20050;-64
2022/05/12 10:50:57;;;;;;;2.05;0.98;;;25.00;54.70;;;26.27;33.09;101254.53;5165649;28;20097;-65
2022/05/12 10:53:50;;;;;;;2.60;1.10;;;25.20;54.40;;;26.52;33.04;101242.38;5163847;28;20046;-66
2022/05/12 10:56:30;;;;;;;;;;;25.50;54.20;;;26.68;32.68;101245.56;5166012;28;20132;-66
2022/05/12 10:59:18;;;;;;;;;;;25.60;53.90;;;26.86;32.76;101249.56;5166052;28;19928;-65
2022/05/12 11:01:54;;;;;;;6.25;1.67;;;25.80;54.20;;;26.82;32.84;101254.13;5165500;28;20370;-65
2022/05/12 11:04:31;;;;;;;2.00;1.10;;;25.90;54.10;;;26.47;32.63;101246.94;5163409;28;20055;-65